Terminal Aerodrome Forecast
Issued by NWS

Home | Current Version | Previous Version | Text Only | Print | Product List | Glossary On
Versions: 1 2 3 4 5 6 7 8 9 10 11 12 13 14 15 16 17 18 19 20 21 22 23 24 25 26 27 28 29 30 31 32
000
FTUS43 KDTX 051253 AAB
TAFMBS
TAF AMD
KMBS 051253Z 0513/0612 VRB03KT 1SM BR BKN002
     FM051400 21006KT 1SM BR BKN015
     FM051500 26007KT 5SM BR SCT015 BKN150
     FM051600 26007KT P6SM SCT035 BKN150
     FM051900 25008KT P6SM BKN040 BKN200
     FM060000 VRB04KT P6SM SCT050 BKN200
     FM060400 VRB02KT 4SM BR BKN250=

USA.gov is the U.S. government's official web portal to all federal, state and local government web resources and services.